createdAt,value
2023-04-10T00:01:18.476Z,22.13
2023-04-10T00:03:46.533Z,22.00
2023-04-10T00:06:13.147Z,20.73
2023-04-10T00:08:40.497Z,21.30
2023-04-10T00:11:07.305Z,20.73
2023-04-10T00:13:33.748Z,21.77
2023-04-10T00:16:00.146Z,21.83
2023-04-10T00:18:26.610Z,20.45
2023-04-10T00:20:53.131Z,21.38
2023-04-10T00:23:19.778Z,20.98
2023-04-10T00:25:46.445Z,22.00
2023-04-10T00:28:12.775Z,21.10
2023-04-10T00:30:39.427Z,21.75
2023-04-10T00:33:05.783Z,22.10
2023-04-10T00:35:32.259Z,19.88
2023-04-10T00:37:58.830Z,21.88
2023-04-10T00:40:25.184Z,20.90
2023-04-10T00:42:51.557Z,21.08
2023-04-10T00:45:18.046Z,20.52
2023-04-10T00:47:44.495Z,21.58
2023-04-10T00:50:10.892Z,19.95
2023-04-10T00:52:37.847Z,20.60
2023-04-10T00:55:04.243Z,21.38
2023-04-10T00:57:30.807Z,19.75
2023-04-10T00:59:57.363Z,19.90
2023-04-10T01:02:24.511Z,19.00
2023-04-10T01:04:51.740Z,18.98
2023-04-10T01:07:18.496Z,19.88
2023-04-10T01:09:45.058Z,19.73
2023-04-10T01:12:11.450Z,20.30
2023-04-10T01:14:37.987Z,20.55
2023-04-10T01:17:04.504Z,18.65
2023-04-10T01:19:31.620Z,18.25
2023-04-10T01:21:58.017Z,19.70
2023-04-10T01:24:24.618Z,20.25
2023-04-10T01:26:51.006Z,20.42
2023-04-10T01:29:17.318Z,19.45
2023-04-10T01:31:43.673Z,19.23
2023-04-10T01:34:10.081Z,17.98
2023-04-10T01:36:36.641Z,19.40
2023-04-10T01:39:03.073Z,19.70
2023-04-10T01:41:29.749Z,19.23
2023-04-10T01:43:56.202Z,18.58
2023-04-10T01:46:22.605Z,19.67
2023-04-10T01:48:49.034Z,18.02
2023-04-10T01:51:15.377Z,19.63
2023-04-10T01:53:41.702Z,19.00
2023-04-10T01:56:08.045Z,18.40
2023-04-10T01:58:34.381Z,19.40
2023-04-10T02:01:00.741Z,18.10
2023-04-10T02:03:27.786Z,18.33
2023-04-10T02:05:54.235Z,18.80
2023-04-10T02:08:20.559Z,18.98
2023-04-10T02:10:46.884Z,19.17
2023-04-10T02:13:13.226Z,18.95
2023-04-10T02:15:40.135Z,19.25
2023-04-10T02:18:06.530Z,18.23
2023-04-10T02:20:32.916Z,20.25
2023-04-10T02:22:59.409Z,19.83
2023-04-10T02:25:25.806Z,18.08
2023-04-10T02:27:52.266Z,18.45
2023-04-10T02:30:18.646Z,19.23
2023-04-10T02:32:45.090Z,18.23
2023-04-10T02:35:11.641Z,19.38
2023-04-10T02:37:38.370Z,19.70
2023-04-10T02:40:05.067Z,18.27
2023-04-10T02:42:31.443Z,19.98
2023-04-10T02:44:58.146Z,18.67
2023-04-10T02:47:24.536Z,19.33
2023-04-10T02:49:51.522Z,19.83
2023-04-10T02:52:17.926Z,17.70
2023-04-10T02:54:44.386Z,18.67
2023-04-10T02:57:11.377Z,20.77
2023-04-10T02:59:37.748Z,19.38
2023-04-10T03:02:04.511Z,19.25
2023-04-10T03:04:31.078Z,19.33
2023-04-10T03:06:57.497Z,18.95
2023-04-10T03:09:23.979Z,19.80
2023-04-10T03:11:50.858Z,20.48
2023-04-10T03:14:17.147Z,20.65
2023-04-10T03:16:43.433Z,19.45
2023-04-10T03:19:09.783Z,20.02
2023-04-10T03:21:36.795Z,19.98
2023-04-10T03:24:03.319Z,19.52
2023-04-10T03:26:29.733Z,19.98
2023-04-10T03:28:56.321Z,20.40
2023-04-10T03:31:23.309Z,21.55
2023-04-10T03:33:49.764Z,20.60
2023-04-10T03:36:16.650Z,19.30
2023-04-10T03:38:43.105Z,20.20
2023-04-10T03:41:09.682Z,19.55
2023-04-10T03:43:36.145Z,19.77
2023-04-10T03:46:02.600Z,21.00
2023-04-10T03:48:29.142Z,21.85
2023-04-10T03:50:55.608Z,20.38
2023-04-10T03:53:22.460Z,20.80
2023-04-10T03:55:48.960Z,22.63
2023-04-10T03:58:15.911Z,21.13
2023-04-10T04:00:42.236Z,20.90
2023-04-10T04:03:08.885Z,20.73
2023-04-10T04:05:35.442Z,22.27
2023-04-10T04:08:02.431Z,21.30
2023-04-10T04:10:28.808Z,19.98
2023-04-10T04:12:55.266Z,22.85
2023-04-10T04:15:21.631Z,21.98
2023-04-10T04:17:48.489Z,21.92
2023-04-10T04:20:14.886Z,20.92
2023-04-10T04:22:41.262Z,21.25
2023-04-10T04:25:07.855Z,19.95
2023-04-10T04:27:34.211Z,22.20
2023-04-10T04:30:00.564Z,20.38
2023-04-10T04:32:28.118Z,21.33
2023-04-10T04:34:54.548Z,21.95
2023-04-10T04:37:20.982Z,22.67
2023-04-10T04:39:47.502Z,20.63
2023-04-10T04:42:14.494Z,22.05
2023-04-10T04:44:41.237Z,20.08
2023-04-10T04:47:07.759Z,21.55
2023-04-10T04:49:34.298Z,22.40
2023-04-10T04:52:00.628Z,19.60
2023-04-10T04:54:27.405Z,21.65
2023-04-10T04:56:53.805Z,21.73
2023-04-10T04:59:20.230Z,20.70
2023-04-10T05:01:46.726Z,20.90
2023-04-10T05:04:13.304Z,20.25
2023-04-10T05:06:40.148Z,19.83
2023-04-10T05:09:06.512Z,20.95
2023-04-10T05:11:32.916Z,20.75
2023-04-10T05:13:59.249Z,20.77
2023-04-10T05:16:25.822Z,20.50
2023-04-10T05:18:53.093Z,20.92
2023-04-10T05:21:19.778Z,21.08
2023-04-10T05:23:46.417Z,21.25
2023-04-10T05:26:13.097Z,20.30
2023-04-10T05:28:39.785Z,21.23
2023-04-10T05:31:06.244Z,20.95
2023-04-10T05:33:32.625Z,20.27
2023-04-10T05:35:58.994Z,20.65
2023-04-10T05:38:25.619Z,20.30
2023-04-10T05:40:52.025Z,20.35
2023-04-10T05:43:18.378Z,20.95
2023-04-10T05:45:45.371Z,20.23
2023-04-10T05:48:11.801Z,21.35
2023-04-10T05:50:38.414Z,20.13
2023-04-10T05:53:05.554Z,20.77
2023-04-10T05:55:32.350Z,19.75
2023-04-10T05:57:59.156Z,19.60
2023-04-10T06:00:25.503Z,19.60
2023-04-10T06:02:52.068Z,18.88
2023-04-10T06:05:19.156Z,20.10
2023-04-10T06:07:45.614Z,18.60
2023-04-10T06:10:11.969Z,20.45
2023-04-10T06:12:38.464Z,18.40
2023-04-10T06:15:04.874Z,20.77
2023-04-10T06:17:31.638Z,19.33
2023-04-10T06:19:58.175Z,19.15
2023-04-10T06:22:24.473Z,20.20
2023-04-10T06:24:50.941Z,19.67
2023-04-10T06:27:17.471Z,18.88
2023-04-10T06:29:43.878Z,19.75
2023-04-10T06:32:10.319Z,18.23
2023-04-10T06:34:36.820Z,18.98
2023-04-10T06:37:03.352Z,19.05
2023-04-10T06:39:29.758Z,20.00
2023-04-10T06:41:56.170Z,18.90
2023-04-10T06:44:22.605Z,18.85
2023-04-10T06:46:49.283Z,18.25
2023-04-10T06:49:15.612Z,20.08
2023-04-10T06:51:42.008Z,18.50
2023-04-10T06:54:08.388Z,18.77
2023-04-10T06:56:34.930Z,18.40
2023-04-10T06:59:01.413Z,18.67
2023-04-10T07:01:27.955Z,18.40
2023-04-10T07:03:54.615Z,17.95
2023-04-10T07:06:20.960Z,16.63
2023-04-10T07:08:47.465Z,17.73
2023-04-10T07:11:13.789Z,18.13
2023-04-10T07:13:40.852Z,17.95
2023-04-10T07:16:07.481Z,17.17
2023-04-10T07:18:34.388Z,16.75
2023-04-10T07:21:00.927Z,17.38
2023-04-10T07:23:27.743Z,17.23
2023-04-10T07:25:54.097Z,17.63
2023-04-10T07:28:20.500Z,17.75
2023-04-10T07:30:46.783Z,16.40
2023-04-10T07:33:14.244Z,16.63
2023-04-10T07:35:40.975Z,17.45
2023-04-10T07:38:07.431Z,17.30
2023-04-10T07:40:34.271Z,17.23
2023-04-10T07:43:00.595Z,16.77
2023-04-10T07:45:27.185Z,17.17
2023-04-10T07:47:53.635Z,16.90
2023-04-10T07:50:20.414Z,17.00
2023-04-10T07:52:46.894Z,17.67
2023-04-10T07:55:13.583Z,15.85
2023-04-10T07:57:41.710Z,16.13
2023-04-10T08:00:08.947Z,16.98
2023-04-10T08:02:35.393Z,16.00
2023-04-10T08:05:01.929Z,15.95
2023-04-10T08:07:28.991Z,15.55
2023-04-10T08:09:55.297Z,16.08
2023-04-10T08:12:21.660Z,16.08
2023-04-10T08:14:48.476Z,15.63
2023-04-10T08:17:14.997Z,15.13
2023-04-10T08:19:41.587Z,17.05
2023-04-10T08:22:07.888Z,15.57
2023-04-10T08:24:34.243Z,16.67
2023-04-10T08:27:00.588Z,16.65
2023-04-10T08:29:27.195Z,15.30
2023-04-10T08:31:54.018Z,15.23
2023-04-10T08:34:20.463Z,15.98
2023-04-10T08:36:46.841Z,16.15
2023-04-10T08:39:13.633Z,15.63
2023-04-10T08:41:40.008Z,16.55
2023-04-10T08:44:06.388Z,16.95
2023-04-10T08:46:32.841Z,14.88
2023-04-10T08:48:59.317Z,17.27
2023-04-10T08:51:26.035Z,16.58
2023-04-10T08:53:53.782Z,16.77
2023-04-10T08:56:20.892Z,15.30
2023-04-10T08:58:47.272Z,16.25
2023-04-10T09:01:13.711Z,17.30
2023-04-10T09:03:40.898Z,15.52
2023-04-10T09:06:07.458Z,16.17
2023-04-10T09:08:33.806Z,15.45
2023-04-10T09:11:00.581Z,17.17
2023-04-10T09:13:26.935Z,16.88
2023-04-10T09:15:53.512Z,16.17
2023-04-10T09:18:19.922Z,16.45
2023-04-10T09:20:46.506Z,16.13
2023-04-10T09:23:13.050Z,14.60
2023-04-10T09:25:39.651Z,14.77
2023-04-10T09:28:06.176Z,16.10
2023-04-10T09:30:32.703Z,14.93
2023-04-10T09:33:01.320Z,16.08
2023-04-10T09:35:28.549Z,15.07
2023-04-10T09:37:54.924Z,15.23
2023-04-10T09:40:21.340Z,16.35
2023-04-10T09:42:47.686Z,15.57
2023-04-10T09:45:14.138Z,16.50
2023-04-10T09:47:40.794Z,16.10
2023-04-10T09:50:07.165Z,15.77
2023-04-10T09:52:33.653Z,15.82
2023-04-10T09:54:59.971Z,14.93
2023-04-10T09:57:26.273Z,14.70
2023-04-10T09:59:52.598Z,16.10
2023-04-10T10:02:19.410Z,15.02
2023-04-10T10:04:46.076Z,16.77
2023-04-10T10:07:12.691Z,16.23
2023-04-10T10:09:39.572Z,14.93
2023-04-10T10:12:05.989Z,15.10
2023-04-10T10:14:32.372Z,15.52
2023-04-10T10:16:58.715Z,16.15
2023-04-10T10:19:25.386Z,15.45
2023-04-10T10:21:51.881Z,15.60
2023-04-10T10:24:18.282Z,14.63
2023-04-10T10:26:44.637Z,15.48
2023-04-10T10:29:11.104Z,14.52
2023-04-10T10:31:37.629Z,15.15
2023-04-10T10:34:04.231Z,15.80
2023-04-10T10:36:30.578Z,14.88
2023-04-10T10:38:56.981Z,14.95
2023-04-10T10:41:23.662Z,14.18
2023-04-10T10:43:50.032Z,15.20
2023-04-10T10:46:16.701Z,15.57
2023-04-10T10:48:43.138Z,15.68
2023-04-10T10:51:09.656Z,14.98
2023-04-10T10:53:36.169Z,14.57
2023-04-10T10:56:02.552Z,15.50
2023-04-10T10:58:28.891Z,14.63
2023-04-10T11:00:55.284Z,15.25
2023-04-10T11:03:22.010Z,14.73
2023-04-10T11:05:48.589Z,14.38
2023-04-10T11:08:14.966Z,15.45
2023-04-10T11:10:41.311Z,14.55
2023-04-10T11:13:07.761Z,15.52
2023-04-10T11:15:34.143Z,15.57
2023-04-10T11:18:00.553Z,14.13
2023-04-10T11:20:27.563Z,15.15
2023-04-10T11:22:54.163Z,13.88
2023-04-10T11:25:20.490Z,14.55
2023-04-10T11:27:46.820Z,14.50
2023-04-10T11:30:13.191Z,14.85
2023-04-10T11:32:39.565Z,14.52
2023-04-10T11:35:05.948Z,14.60
2023-04-10T11:37:32.304Z,14.23
2023-04-10T11:39:58.729Z,15.05
2023-04-10T11:42:25.302Z,14.00
2023-04-10T11:44:51.782Z,14.30
2023-04-10T11:47:18.286Z,14.57
2023-04-10T11:49:44.721Z,14.77
2023-04-10T11:52:11.110Z,15.25
2023-04-10T11:54:37.579Z,15.20
2023-04-10T11:57:03.910Z,15.48
2023-04-10T11:59:30.554Z,15.07
2023-04-10T12:01:56.915Z,15.25
2023-04-10T12:04:23.498Z,14.38
2023-04-10T12:06:50.090Z,15.95
2023-04-10T12:09:16.537Z,14.15
2023-04-10T12:11:43.121Z,14.65
2023-04-10T12:14:09.462Z,14.38
2023-04-10T12:16:35.866Z,14.95
2023-04-10T12:19:02.156Z,15.00
2023-04-10T12:21:28.837Z,14.80
2023-04-10T12:23:55.149Z,15.50
2023-04-10T12:26:21.562Z,15.18
2023-04-10T12:28:47.920Z,15.88
2023-04-10T12:31:14.323Z,15.68
2023-04-10T12:33:40.773Z,15.27
2023-04-10T12:36:07.071Z,14.60
2023-04-10T12:38:33.586Z,15.45
2023-04-10T12:40:59.923Z,15.05
2023-04-10T12:43:26.343Z,16.23
2023-04-10T12:45:53.073Z,16.40
2023-04-10T12:48:20.053Z,16.35
2023-04-10T12:50:46.496Z,16.45
2023-04-10T12:53:13.112Z,14.40
2023-04-10T12:55:39.702Z,14.15
2023-04-10T12:58:06.081Z,15.65
2023-04-10T13:00:32.363Z,15.98
2023-04-10T13:02:58.873Z,15.25
2023-04-10T13:05:25.900Z,15.32
2023-04-10T13:07:52.278Z,15.55
2023-04-10T13:10:18.582Z,16.05
2023-04-10T13:12:44.877Z,15.18
2023-04-10T13:15:11.215Z,15.93
2023-04-10T13:17:37.923Z,16.00
2023-04-10T13:20:04.629Z,14.52
2023-04-10T13:22:31.047Z,15.32
2023-04-10T13:24:57.384Z,16.15
2023-04-10T13:27:24.132Z,15.60
2023-04-10T13:29:50.678Z,14.95
2023-04-10T13:32:17.288Z,15.95
2023-04-10T13:34:43.773Z,16.45
2023-04-10T13:37:10.224Z,15.07
2023-04-10T13:39:36.611Z,14.80
2023-04-10T13:42:03.525Z,15.30
2023-04-10T13:44:30.213Z,15.88
2023-04-10T13:46:56.547Z,14.27
2023-04-10T13:49:23.185Z,15.35
2023-04-10T13:51:50.092Z,14.98
2023-04-10T13:54:16.539Z,15.00
2023-04-10T13:56:42.874Z,14.13
2023-04-10T13:59:09.144Z,14.23
2023-04-10T14:01:35.615Z,14.93
2023-04-10T14:04:02.067Z,15.85
2023-04-10T14:06:29.193Z,14.20
2023-04-10T14:08:56.232Z,14.00
2023-04-10T14:11:23.110Z,15.20
2023-04-10T14:13:49.510Z,13.65
2023-04-10T14:16:16.018Z,13.63
2023-04-10T14:18:42.616Z,14.52
2023-04-10T14:21:09.212Z,14.30
2023-04-10T14:23:35.546Z,14.55
2023-04-10T14:26:02.115Z,13.45
2023-04-10T14:28:28.587Z,13.90
2023-04-10T14:30:55.334Z,13.98
2023-04-10T14:33:21.761Z,14.20
2023-04-10T14:35:49.437Z,14.75
2023-04-10T14:38:16.213Z,13.55
2023-04-10T14:40:42.686Z,14.05
2023-04-10T14:43:09.256Z,13.98
2023-04-10T14:45:35.602Z,14.18
2023-04-10T14:48:02.250Z,13.15
2023-04-10T14:50:28.860Z,14.25
2023-04-10T14:52:55.579Z,13.00
2023-04-10T14:55:21.843Z,12.90
2023-04-10T14:57:48.211Z,11.73
2023-04-10T15:00:14.553Z,13.55
2023-04-10T15:02:40.921Z,99.03
2023-04-10T15:05:07.287Z,215.48
2023-04-10T15:07:33.590Z,203.35
2023-04-10T15:09:59.998Z,145.55
2023-04-10T15:12:26.561Z,162.82
2023-04-10T15:14:53.030Z,141.13
2023-04-10T15:17:19.429Z,137.20
2023-04-10T15:19:45.924Z,140.35
2023-04-10T15:22:12.424Z,142.70
2023-04-10T15:24:50.124Z,141.23
2023-04-10T15:27:17.855Z,142.38
2023-04-10T15:29:44.185Z,133.20
2023-04-10T15:32:10.607Z,131.10
2023-04-10T15:34:37.027Z,128.02
2023-04-10T15:37:03.390Z,121.65
2023-04-10T15:39:29.796Z,120.63
2023-04-10T15:41:56.274Z,116.22
2023-04-10T15:44:22.587Z,114.22
2023-04-10T15:46:49.397Z,112.43
2023-04-10T15:49:23.173Z,111.78
2023-04-10T15:51:57.066Z,105.45
2023-04-10T15:54:23.505Z,108.15
2023-04-10T15:56:50.041Z,105.13
2023-04-10T15:59:16.642Z,102.55
2023-04-10T16:01:43.212Z,101.05
2023-04-10T16:04:09.668Z,98.63
2023-04-10T16:06:36.113Z,99.28
2023-04-10T16:09:04.750Z,98.95
2023-04-10T16:11:34.258Z,93.22
2023-04-10T16:14:00.758Z,96.00
2023-04-10T16:16:27.308Z,91.22
2023-04-10T16:18:53.787Z,93.72
2023-04-10T16:21:20.152Z,90.22
2023-04-10T16:23:46.641Z,89.75
2023-04-10T16:26:12.964Z,90.45
2023-04-10T16:28:39.679Z,87.40
2023-04-10T16:31:06.021Z,86.85
2023-04-10T16:33:32.705Z,86.88
2023-04-10T16:35:59.257Z,85.65
2023-04-10T16:38:25.657Z,85.80
2023-04-10T16:40:51.986Z,84.65
2023-04-10T16:43:18.282Z,81.43
2023-04-10T16:45:44.604Z,80.70
2023-04-10T16:48:11.508Z,78.28
2023-04-10T16:50:37.959Z,80.10
2023-04-10T16:53:04.375Z,77.15
2023-04-10T16:55:30.657Z,76.25
2023-04-10T16:57:57.246Z,75.03
2023-04-10T17:00:23.680Z,74.55
2023-04-10T17:02:50.238Z,75.93
2023-04-10T17:05:16.744Z,75.22
2023-04-10T17:07:44.582Z,72.53
2023-04-10T17:10:11.638Z,75.45
2023-04-10T17:12:38.028Z,74.40
2023-04-10T17:15:04.429Z,70.25
2023-04-10T17:17:30.784Z,70.22
2023-04-10T17:19:57.413Z,69.78
2023-04-10T17:22:24.381Z,69.28
2023-04-10T17:24:51.411Z,68.63
2023-04-10T17:27:18.155Z,67.93
2023-04-10T17:29:44.900Z,69.82
2023-04-10T17:32:11.620Z,71.40
2023-04-10T17:34:37.924Z,66.93
2023-04-10T17:37:04.414Z,66.65
2023-04-10T17:39:30.809Z,64.85
2023-04-10T17:41:57.202Z,66.05
2023-04-10T17:44:24.151Z,64.82
2023-04-10T17:46:50.654Z,64.00
2023-04-10T17:49:17.298Z,64.95
2023-04-10T17:51:44.076Z,65.82
2023-04-10T17:54:10.446Z,65.30
2023-04-10T17:56:37.362Z,63.55
2023-04-10T17:59:04.229Z,61.55
2023-04-10T18:01:30.833Z,62.42
2023-04-10T18:03:57.925Z,64.55
2023-04-10T18:06:24.933Z,63.60
2023-04-10T18:08:51.912Z,62.88
2023-04-10T18:11:18.706Z,63.85
2023-04-10T18:13:45.609Z,62.85
2023-04-10T18:16:12.238Z,61.33
2023-04-10T18:18:38.944Z,61.25
2023-04-10T18:21:05.770Z,61.13
2023-04-10T18:23:32.586Z,61.00
2023-04-10T18:25:59.214Z,60.85
2023-04-10T18:28:25.851Z,58.55
2023-04-10T18:30:52.487Z,59.83
2023-04-10T18:33:19.422Z,60.80
2023-04-10T18:35:46.172Z,59.53
2023-04-10T18:38:13.639Z,59.78
2023-04-10T18:40:40.485Z,59.05
2023-04-10T18:43:07.302Z,57.55
2023-04-10T18:45:34.026Z,56.90
2023-04-10T18:48:00.749Z,57.40
2023-04-10T18:50:27.544Z,54.97
2023-04-10T18:52:54.202Z,55.78
2023-04-10T18:55:20.663Z,56.03
2023-04-10T18:57:47.194Z,56.70
2023-04-10T19:00:14.269Z,56.03
2023-04-10T19:02:40.663Z,53.90
2023-04-10T19:05:07.471Z,55.22
2023-04-10T19:07:34.699Z,54.40
2023-04-10T19:10:01.760Z,52.97
2023-04-10T19:12:28.685Z,53.92
2023-04-10T19:14:55.368Z,53.60
2023-04-10T19:17:22.043Z,53.45
2023-04-10T19:19:49.075Z,54.47
2023-04-10T19:22:16.057Z,53.10
2023-04-10T19:24:43.033Z,51.22
2023-04-10T19:27:09.318Z,48.95
2023-04-10T19:29:36.046Z,51.83
2023-04-10T19:32:02.805Z,49.90
2023-04-10T19:34:29.606Z,49.30
2023-04-10T19:36:55.982Z,49.88
2023-04-10T19:39:22.297Z,49.97
2023-04-10T19:41:50.366Z,48.35
2023-04-10T19:44:17.044Z,50.10
2023-04-10T19:46:43.919Z,47.80
2023-04-10T19:49:10.467Z,48.95
2023-04-10T19:51:36.835Z,47.95
2023-04-10T19:54:03.878Z,47.75
2023-04-10T19:56:30.227Z,45.90
2023-04-10T19:58:57.361Z,46.42
2023-04-10T20:01:24.648Z,48.65
2023-04-10T20:03:51.526Z,46.95
2023-04-10T20:06:18.012Z,45.58
2023-04-10T20:08:44.980Z,46.05
2023-04-10T20:11:11.790Z,45.97
2023-04-10T20:13:38.643Z,45.30
2023-04-10T20:16:05.474Z,43.70
2023-04-10T20:18:31.906Z,44.05
2023-04-10T20:20:58.424Z,45.33
2023-04-10T20:23:24.771Z,44.70
2023-04-10T20:25:51.610Z,43.92
2023-04-10T20:28:18.317Z,42.35
2023-04-10T20:30:44.796Z,43.85
2023-04-10T20:33:11.736Z,42.60
2023-04-10T20:35:38.177Z,41.58
2023-04-10T20:38:04.994Z,41.95
2023-04-10T20:40:31.655Z,41.80
2023-04-10T20:42:58.080Z,41.08
2023-04-10T20:45:24.871Z,39.60
2023-04-10T20:47:51.551Z,39.80
2023-04-10T20:50:18.499Z,39.15
2023-04-10T20:52:45.256Z,40.00
2023-04-10T20:55:11.597Z,38.55
2023-04-10T20:57:38.098Z,40.58
2023-04-10T21:00:04.702Z,39.25
2023-04-10T21:02:31.672Z,39.28
2023-04-10T21:04:58.210Z,38.28
2023-04-10T21:07:24.578Z,36.50
2023-04-10T21:09:51.882Z,36.80
2023-04-10T21:12:18.827Z,37.75
2023-04-10T21:14:46.030Z,36.80
2023-04-10T21:17:12.817Z,36.72
2023-04-10T21:19:39.690Z,36.25
2023-04-10T21:22:06.212Z,37.20
2023-04-10T21:24:32.894Z,34.33
2023-04-10T21:26:59.373Z,34.75
2023-04-10T21:29:25.838Z,35.25
2023-04-10T21:31:52.275Z,33.15
2023-04-10T21:34:18.740Z,35.35
2023-04-10T21:36:45.774Z,34.85
2023-04-10T21:39:12.476Z,34.95
2023-04-10T21:41:38.863Z,33.80
2023-04-10T21:44:05.323Z,33.47
2023-04-10T21:46:31.866Z,34.15
2023-04-10T21:48:58.930Z,33.30
2023-04-10T21:51:26.795Z,32.90
2023-04-10T21:53:53.322Z,31.95
2023-04-10T21:56:20.346Z,31.83
2023-04-10T21:58:47.206Z,30.30
2023-04-10T22:01:13.546Z,30.85
2023-04-10T22:03:39.991Z,30.52
2023-04-10T22:06:07.251Z,31.83
2023-04-10T22:08:33.853Z,30.17
2023-04-10T22:11:00.223Z,31.27
2023-04-10T22:13:30.854Z,30.55
2023-04-10T22:15:57.740Z,30.67
2023-04-10T22:18:24.214Z,29.95
2023-04-10T22:20:50.630Z,30.65
2023-04-10T22:23:17.064Z,30.05
2023-04-10T22:25:43.653Z,30.40
2023-04-10T22:28:10.522Z,28.20
2023-04-10T22:30:37.056Z,28.48
2023-04-10T22:33:03.672Z,28.95
2023-04-10T22:35:30.094Z,27.50
2023-04-10T22:37:56.497Z,27.45
2023-04-10T22:40:23.048Z,28.63
2023-04-10T22:42:49.513Z,27.83
2023-04-10T22:45:15.949Z,27.52
2023-04-10T22:47:42.375Z,27.67
2023-04-10T22:50:08.881Z,26.35
2023-04-10T22:52:35.303Z,28.30
2023-04-10T22:55:01.919Z,26.58
2023-04-10T22:57:28.955Z,25.85
2023-04-10T22:59:55.304Z,25.98
2023-04-10T23:02:21.898Z,25.10
2023-04-10T23:04:48.457Z,24.63
2023-04-10T23:07:14.936Z,26.00
2023-04-10T23:09:41.251Z,24.63
2023-04-10T23:12:08.121Z,27.83
2023-04-10T23:14:34.467Z,24.83
2023-04-10T23:17:00.969Z,23.80
2023-04-10T23:19:27.318Z,25.55
2023-04-10T23:21:53.839Z,24.17
2023-04-10T23:24:20.184Z,24.13
2023-04-10T23:26:46.793Z,24.85
2023-04-10T23:29:13.299Z,24.00
2023-04-10T23:31:39.661Z,24.17
2023-04-10T23:34:06.208Z,23.73
2023-04-10T23:36:32.601Z,23.10
2023-04-10T23:38:59.528Z,22.27
2023-04-10T23:41:25.903Z,24.65
2023-04-10T23:43:52.245Z,23.80
2023-04-10T23:46:18.562Z,23.25
2023-04-10T23:48:45.106Z,23.15
2023-04-10T23:51:11.589Z,22.10
2023-04-10T23:53:37.946Z,22.73
2023-04-10T23:56:04.294Z,22.42
2023-04-10T23:58:30.680Z,21.00
